Time;durP1;ratioP1;P1;durP2;ratioP2;P2;SDS_P1;SDS_P2;PMS_P1;PMS_P2;Temp;Humidity;BMP_temperature;BMP_pressure;BME280_temperature;BME280_humidity;BME280_pressure;Samples;Min_cycle;Max_cycle;Signal;HPM_P1;HPM_P2
2023/11/09 00:01:47;;;;;;;11.50;4.97;;;;;;;;;;4993139;28;20045;-74
2023/11/09 00:04:14;;;;;;;10.20;5.30;;;;;;;;;;4993979;28;20498;-76
2023/11/09 00:06:40;;;;;;;7.37;4.53;;;;;;;;;;4994075;28;20030;-75
2023/11/09 00:09:06;;;;;;;7.63;4.90;;;;;;;;;;4995517;28;20093;-75
2023/11/09 00:11:31;;;;;;;13.13;5.70;;;;;;;;;;5013282;28;20045;-75
2023/11/09 00:13:57;;;;;;;11.50;5.53;;;;;;;;;;5014409;28;20029;-75
2023/11/09 00:16:23;;;;;;;8.87;4.83;;;;;;;;;;5015136;28;20099;-75
2023/11/09 00:18:49;;;;;;;10.60;4.60;;;;;;;;;;5016286;28;20133;-74
2023/11/09 00:21:14;;;;;;;10.30;5.63;;;;;;;;;;5015132;28;20026;-74
2023/11/09 00:23:40;;;;;;;16.03;5.60;;;;;;;;;;4999853;28;20023;-75
2023/11/09 00:26:08;;;;;;;13.37;5.33;;;;;;;;;;5006936;28;20117;-76
2023/11/09 00:28:34;;;;;;;9.60;5.73;;;;;;;;;;5007533;28;20057;-73
2023/11/09 00:30:59;;;;;;;14.83;5.77;;;;;;;;;;4997836;28;20471;-74
2023/11/09 00:33:25;;;;;;;11.30;5.80;;;;;;;;;;4996491;28;20526;-74
2023/11/09 00:35:52;;;;;;;9.73;5.70;;;;;;;;;;5016586;28;20064;-73
2023/11/09 00:38:19;;;;;;;12.73;5.40;;;;;;;;;;5014069;28;20042;-72
2023/11/09 00:40:46;;;;;;;16.80;5.30;;;;;;;;;;5012418;28;20076;-74
2023/11/09 00:43:12;;;;;;;9.63;5.07;;;;;;;;;;5012149;28;20022;-74
2023/11/09 00:45:38;;;;;;;12.10;5.70;;;;;;;;;;5011942;28;20037;-73
2023/11/09 00:48:04;;;;;;;9.20;5.37;;;;;;;;;;5012035;28;20029;-74
2023/11/09 00:50:31;;;;;;;12.87;5.40;;;;;;;;;;5012174;28;20033;-74
2023/11/09 00:52:56;;;;;;;14.43;5.73;;;;;;;;;;5011787;28;20036;-74
2023/11/09 00:55:23;;;;;;;10.83;5.53;;;;;;;;;;5012542;28;20026;-75
2023/11/09 00:57:49;;;;;;;13.93;5.33;;;;;;;;;;5011215;28;20406;-75
2023/11/09 01:00:15;;;;;;;8.00;4.80;;;;;;;;;;5011156;28;20036;-73
2023/11/09 01:02:42;;;;;;;12.37;5.13;;;;;;;;;;5012452;28;20409;-75
2023/11/09 01:05:09;;;;;;;8.57;4.93;;;;;;;;;;5011018;28;20100;-73
2023/11/09 01:07:36;;;;;;;10.60;4.80;;;;;;;;;;5010475;28;20037;-75
2023/11/09 01:10:02;;;;;;;9.57;4.63;;;;;;;;;;5006335;28;20410;-74
2023/11/09 01:12:31;;;;;;;10.60;5.50;;;;;;;;;;4991826;28;20061;-75
2023/11/09 01:14:56;;;;;;;12.13;5.40;;;;;;;;;;4990845;28;20037;-75
2023/11/09 01:17:22;;;;;;;7.30;5.30;;;;;;;;;;4992389;28;20026;-75
2023/11/09 01:19:48;;;;;;;7.97;4.33;;;;;;;;;;4990582;28;20045;-76
2023/11/09 01:22:13;;;;;;;9.10;4.43;;;;;;;;;;5007585;28;20034;-74
2023/11/09 01:24:40;;;;;;;9.57;4.27;;;;;;;;;;4992297;28;20038;-75
2023/11/09 01:27:06;;;;;;;7.67;4.30;;;;;;;;;;5010729;28;20034;-75
2023/11/09 01:29:31;;;;;;;12.50;4.77;;;;;;;;;;5009932;28;20502;-76
2023/11/09 01:31:58;;;;;;;11.13;4.77;;;;;;;;;;5011289;28;20038;-75
2023/11/09 01:34:24;;;;;;;5.87;3.33;;;;;;;;;;5022923;28;20030;-75
2023/11/09 01:36:53;;;;;;;10.37;5.03;;;;;;;;;;4996794;28;20034;-76
2023/11/09 01:39:19;;;;;;;8.53;4.77;;;;;;;;;;4995629;28;20462;-75
2023/11/09 01:41:45;;;;;;;7.90;4.63;;;;;;;;;;5012111;28;20529;-75
2023/11/09 01:44:12;;;;;;;8.17;4.07;;;;;;;;;;4996039;28;20038;-76
2023/11/09 01:46:40;;;;;;;8.03;4.13;;;;;;;;;;5007246;28;20034;-74
2023/11/09 01:49:06;;;;;;;8.83;4.27;;;;;;;;;;5017710;28;20040;-73
2023/11/09 01:51:32;;;;;;;11.50;4.07;;;;;;;;;;5015788;28;20037;-74
2023/11/09 01:53:59;;;;;;;7.40;4.57;;;;;;;;;;5017038;28;20030;-74
2023/11/09 01:56:25;;;;;;;6.63;3.73;;;;;;;;;;5016962;28;20022;-75
2023/11/09 01:58:52;;;;;;;8.43;4.13;;;;;;;;;;5012497;28;20382;-75
2023/11/09 02:01:21;;;;;;;8.27;4.27;;;;;;;;;;5014377;28;20061;-74
2023/11/09 02:03:46;;;;;;;9.40;4.70;;;;;;;;;;5014763;28;20056;-74
2023/11/09 02:06:13;;;;;;;6.33;3.80;;;;;;;;;;5015102;28;20480;-74
2023/11/09 02:08:40;;;;;;;7.93;4.10;;;;;;;;;;4998746;28;20037;-74
2023/11/09 02:11:08;;;;;;;7.10;4.07;;;;;;;;;;5015499;28;20037;-75
2023/11/09 02:13:36;;;;;;;8.27;3.83;;;;;;;;;;5014911;28;20026;-74
2023/11/09 02:16:04;;;;;;;8.03;4.10;;;;;;;;;;5014611;28;20033;-75
2023/11/09 02:18:33;;;;;;;8.47;4.33;;;;;;;;;;5014958;28;20235;-75
2023/11/09 02:20:59;;;;;;;6.70;4.43;;;;;;;;;;5016648;28;20034;-74
2023/11/09 02:23:30;;;;;;;10.30;4.27;;;;;;;;;;5007496;28;20042;-75
2023/11/09 02:25:57;;;;;;;15.85;4.93;;;;;;;;;;4996520;28;20787;-76
2023/11/09 02:28:22;;;;;;;9.63;3.97;;;;;;;;;;4996693;28;20152;-75
2023/11/09 02:30:49;;;;;;;7.80;3.90;;;;;;;;;;4994912;28;20483;-74
2023/11/09 02:33:15;;;;;;;7.10;3.83;;;;;;;;;;4995673;28;20072;-71
2023/11/09 02:35:41;;;;;;;6.27;4.37;;;;;;;;;;5008291;28;20022;-74
2023/11/09 02:38:08;;;;;;;5.40;3.27;;;;;;;;;;4993768;28;20058;-73
2023/11/09 02:40:35;;;;;;;6.87;3.73;;;;;;;;;;4994186;28;20026;-74
2023/11/09 02:43:01;;;;;;;9.97;3.80;;;;;;;;;;4995358;28;20037;-74
2023/11/09 02:45:26;;;;;;;5.33;3.23;;;;;;;;;;4994119;28;20042;-74
2023/11/09 02:47:52;;;;;;;5.23;3.80;;;;;;;;;;5014954;28;20412;-74
2023/11/09 02:50:21;;;;;;;8.10;3.47;;;;;;;;;;5014153;28;20033;-74
2023/11/09 02:52:48;;;;;;;6.33;3.53;;;;;;;;;;5014688;28;20072;-75
2023/11/09 02:55:15;;;;;;;7.63;4.00;;;;;;;;;;5011479;28;20593;-75
2023/11/09 02:57:40;;;;;;;7.40;3.57;;;;;;;;;;5014560;28;20691;-74
2023/11/09 03:00:07;;;;;;;12.90;4.37;;;;;;;;;;5011971;28;20029;-73
2023/11/09 03:02:34;;;;;;;10.53;3.87;;;;;;;;;;4994720;28;20030;-74
2023/11/09 03:05:00;;;;;;;5.73;3.60;;;;;;;;;;5008134;28;20030;-75
2023/11/09 03:07:25;;;;;;;6.67;3.43;;;;;;;;;;5012708;28;20032;-73
2023/11/09 03:09:51;;;;;;;7.10;3.63;;;;;;;;;;5014606;28;20028;-75
2023/11/09 03:12:17;;;;;;;8.13;3.87;;;;;;;;;;5013154;28;20108;-73
2023/11/09 03:14:42;;;;;;;5.83;4.23;;;;;;;;;;5014343;28;20061;-74
2023/11/09 03:17:10;;;;;;;6.40;3.50;;;;;;;;;;4998913;28;20042;-73
2023/11/09 03:19:38;;;;;;;8.43;4.03;;;;;;;;;;4994279;28;20049;-73
2023/11/09 03:22:08;;;;;;;6.73;3.63;;;;;;;;;;4992947;28;20036;-74
2023/11/09 03:24:34;;;;;;;9.97;3.90;;;;;;;;;;4994472;28;20117;-73
2023/11/09 03:27:09;;;;;;;6.37;3.00;;;;;;;;;;4993411;28;20034;-73
2023/11/09 03:29:37;;;;;;;7.53;3.77;;;;;;;;;;4992944;28;20040;-74
2023/11/09 03:32:05;;;;;;;6.03;3.43;;;;;;;;;;4995882;28;20080;-73
2023/11/09 03:34:31;;;;;;;9.30;3.40;;;;;;;;;;4993448;28;20392;-74
2023/11/09 03:36:57;;;;;;;7.00;3.20;;;;;;;;;;4993319;28;20026;-76
2023/11/09 03:39:24;;;;;;;10.83;4.70;;;;;;;;;;5008722;28;20121;-75
2023/11/09 03:41:51;;;;;;;8.53;3.50;;;;;;;;;;5012539;28;20045;-75
2023/11/09 03:44:16;;;;;;;6.03;4.00;;;;;;;;;;5013765;28;20446;-74
2023/11/09 03:46:42;;;;;;;10.00;4.20;;;;;;;;;;5012396;28;20133;-74
2023/11/09 03:49:09;;;;;;;5.73;3.83;;;;;;;;;;5012238;28;20113;-74
2023/11/09 03:51:35;;;;;;;6.60;3.73;;;;;;;;;;5008180;28;20034;-73
2023/11/09 03:54:03;;;;;;;10.67;4.13;;;;;;;;;;4993283;28;20037;-75
2023/11/09 03:56:31;;;;;;;8.83;4.13;;;;;;;;;;4994837;28;20026;-74
2023/11/09 03:58:57;;;;;;;4.97;3.10;;;;;;;;;;4994102;28;20034;-74
2023/11/09 04:01:23;;;;;;;6.97;4.30;;;;;;;;;;5006399;28;20022;-73
2023/11/09 04:03:49;;;;;;;9.07;4.27;;;;;;;;;;5006044;28;20129;-74
2023/11/09 04:06:17;;;;;;;9.27;4.23;;;;;;;;;;4994752;28;20122;-74
2023/11/09 04:08:46;;;;;;;6.83;3.90;;;;;;;;;;5009123;28;20034;-75
2023/11/09 04:11:12;;;;;;;5.63;3.40;;;;;;;;;;4992658;28;20321;-75
2023/11/09 04:13:39;;;;;;;6.70;3.47;;;;;;;;;;4992776;28;20113;-76
2023/11/09 04:16:05;;;;;;;8.20;3.53;;;;;;;;;;4994430;28;20030;-74
2023/11/09 04:18:33;;;;;;;8.60;4.10;;;;;;;;;;4993856;28;20034;-74
2023/11/09 04:21:00;;;;;;;8.43;4.20;;;;;;;;;;4993628;28;20033;-74
2023/11/09 04:23:26;;;;;;;8.27;4.03;;;;;;;;;;4997766;28;20069;-75
2023/11/09 04:25:52;;;;;;;6.30;3.73;;;;;;;;;;4997306;28;20022;-74
2023/11/09 04:28:18;;;;;;;5.47;3.47;;;;;;;;;;4998689;28;20061;-75
2023/11/09 04:30:43;;;;;;;12.53;3.57;;;;;;;;;;5018719;28;20081;-75
2023/11/09 04:33:09;;;;;;;5.03;4.03;;;;;;;;;;5020779;28;20030;-74
2023/11/09 04:35:39;;;;;;;6.47;3.27;;;;;;;;;;5011381;28;20034;-75
2023/11/09 04:38:05;;;;;;;7.93;4.27;;;;;;;;;;5015071;28;20054;-74
2023/11/09 04:40:31;;;;;;;6.37;3.23;;;;;;;;;;5015287;28;20036;-74
2023/11/09 04:42:58;;;;;;;7.30;3.00;;;;;;;;;;5015805;28;20036;-74
2023/11/09 04:45:25;;;;;;;7.53;4.23;;;;;;;;;;5009003;28;20241;-75
2023/11/09 04:47:55;;;;;;;6.20;3.83;;;;;;;;;;4995218;28;20072;-74
2023/11/09 04:50:28;;;;;;;6.10;3.50;;;;;;;;;;5013957;28;20038;-73
2023/11/09 04:53:07;;;;;;;8.87;4.00;;;;;;;;;;4993784;28;20080;-76
2023/11/09 04:55:53;;;;;;;4.87;3.53;;;;;;;;;;5008393;28;20114;-75
2023/11/09 04:58:44;;;;;;;6.57;3.93;;;;;;;;;;5008525;28;20092;-76
2023/11/09 05:06:55;;;;;;;7.37;4.20;;;;;;;;;;5013340;28;20041;-75
2023/11/09 05:09:24;;;;;;;6.17;3.87;;;;;;;;;;5013122;28;20018;-74
2023/11/09 05:11:51;;;;;;;5.13;3.13;;;;;;;;;;5012572;28;20018;-74
2023/11/09 05:14:17;;;;;;;10.80;4.03;;;;;;;;;;5014068;28;20013;-74
2023/11/09 05:16:43;;;;;;;9.37;4.03;;;;;;;;;;5011722;28;20412;-75
2023/11/09 05:19:09;;;;;;;7.30;3.80;;;;;;;;;;5013214;28;20037;-74
2023/11/09 05:21:37;;;;;;;9.33;3.73;;;;;;;;;;5010433;28;20036;-72
2023/11/09 05:24:03;;;;;;;6.10;3.67;;;;;;;;;;5002955;28;20038;-73
2023/11/09 05:26:34;;;;;;;6.33;3.80;;;;;;;;;;5010117;28;20022;-71
2023/11/09 05:29:00;;;;;;;12.90;8.20;;;;;;;;;;5006402;28;20132;-73
2023/11/09 05:31:26;;;;;;;6.60;4.07;;;;;;;;;;5007185;28;20026;-72
2023/11/09 05:33:54;;;;;;;6.90;3.50;;;;;;;;;;4991058;28;20052;-73
2023/11/09 05:36:21;;;;;;;6.03;3.90;;;;;;;;;;5007778;28;20145;-75
2023/11/09 05:38:48;;;;;;;6.97;4.27;;;;;;;;;;5002593;28;20030;-74
2023/11/09 05:41:16;;;;;;;10.60;4.00;;;;;;;;;;5003238;28;20034;-76
2023/11/09 05:43:45;;;;;;;8.87;4.53;;;;;;;;;;5005698;28;20917;-76
2023/11/09 05:46:10;;;;;;;7.23;3.93;;;;;;;;;;5001068;28;20096;-73
2023/11/09 05:48:36;;;;;;;6.83;3.90;;;;;;;;;;5005859;28;20026;-75
2023/11/09 05:51:02;;;;;;;6.03;4.33;;;;;;;;;;5000278;28;20111;-72
2023/11/09 05:53:27;;;;;;;12.50;4.83;;;;;;;;;;4998964;28;20502;-72
2023/11/09 05:55:53;;;;;;;6.77;3.87;;;;;;;;;;5008337;28;20026;-73
2023/11/09 05:58:19;;;;;;;10.40;4.33;;;;;;;;;;4994677;28;20375;-73
2023/11/09 06:00:45;;;;;;;8.67;4.90;;;;;;;;;;5007617;28;20056;-72
2023/11/09 06:03:11;;;;;;;8.53;4.80;;;;;;;;;;5008516;28;20054;-73
2023/11/09 06:05:39;;;;;;;9.33;4.90;;;;;;;;;;5002094;28;20602;-74
2023/11/09 06:08:05;;;;;;;11.97;5.17;;;;;;;;;;5000906;28;20026;-74
2023/11/09 06:10:30;;;;;;;9.57;4.33;;;;;;;;;;4999658;28;20474;-74
2023/11/09 06:12:56;;;;;;;10.23;4.50;;;;;;;;;;5017198;28;20486;-73
2023/11/09 06:15:22;;;;;;;12.00;5.90;;;;;;;;;;5003077;28;20091;-77
2023/11/09 06:17:48;;;;;;;9.97;4.30;;;;;;;;;;4995711;28;20044;-77
2023/11/09 06:20:15;;;;;;;8.23;4.67;;;;;;;;;;5011682;28;20025;-75
2023/11/09 06:22:41;;;;;;;10.57;5.30;;;;;;;;;;5008086;28;20025;-75
2023/11/09 06:25:08;;;;;;;8.20;4.80;;;;;;;;;;5017103;28;20041;-74
2023/11/09 06:27:34;;;;;;;9.07;4.87;;;;;;;;;;5016366;28;20474;-73
2023/11/09 06:30:03;;;;;;;13.80;4.63;;;;;;;;;;5034478;28;20467;-75
2023/11/09 06:32:29;;;;;;;6.90;4.57;;;;;;;;;;5040204;28;20033;-73
2023/11/09 06:34:55;;;;;;;9.40;4.37;;;;;;;;;;5014558;28;20411;-75
2023/11/09 06:37:20;;;;;;;14.67;4.80;;;;;;;;;;5024433;28;20265;-72
2023/11/09 06:39:49;;;;;;;8.50;4.57;;;;;;;;;;5003684;28;20030;-76
2023/11/09 06:42:17;;;;;;;7.67;4.03;;;;;;;;;;5001229;28;20294;-74
2023/11/09 06:44:46;;;;;;;7.47;4.30;;;;;;;;;;5008642;28;20026;-76
2023/11/09 06:47:12;;;;;;;7.23;3.73;;;;;;;;;;5006662;28;20041;-76
2023/11/09 06:49:38;;;;;;;13.83;5.17;;;;;;;;;;5012622;28;20025;-75
2023/11/09 06:52:05;;;;;;;8.97;4.43;;;;;;;;;;5011597;28;20018;-77
2023/11/09 06:54:32;;;;;;;5.57;3.77;;;;;;;;;;5014555;28;20033;-76
2023/11/09 06:56:59;;;;;;;7.77;4.60;;;;;;;;;;5008415;28;20033;-76
2023/11/09 06:59:28;;;;;;;10.33;4.13;;;;;;;;;;5014793;28;20038;-76
2023/11/09 07:01:54;;;;;;;6.57;4.23;;;;;;;;;;5015938;28;20037;-75
2023/11/09 07:04:23;;;;;;;9.93;4.97;;;;;;;;;;5011711;28;20131;-77
2023/11/09 07:06:48;;;;;;;13.87;4.40;;;;;;;;;;5011380;28;20048;-76
2023/11/09 07:09:15;;;;;;;9.20;3.93;;;;;;;;;;5003141;28;20475;-76
2023/11/09 07:11:42;;;;;;;6.90;4.30;;;;;;;;;;5007761;28;20033;-76
2023/11/09 07:14:31;;;;;;;8.13;4.40;;;;;;;;;;5005906;28;20033;-76
2023/11/09 07:16:57;;;;;;;11.70;7.30;;;;;;;;;;5009760;28;20038;-77
2023/11/09 07:19:25;;;;;;;10.60;4.43;;;;;;;;;;5005530;28;20158;-77
2023/11/09 07:21:53;;;;;;;6.00;4.10;;;;;;;;;;5016997;28;20128;-76
2023/11/09 07:24:19;;;;;;;9.43;4.23;;;;;;;;;;5012320;28;20018;-77
2023/11/09 07:26:45;;;;;;;7.43;3.60;;;;;;;;;;5022058;28;20034;-77
2023/11/09 07:29:10;;;;;;;7.87;3.90;;;;;;;;;;5003369;28;20033;-75
2023/11/09 07:31:36;;;;;;;6.83;4.07;;;;;;;;;;5010079;28;20393;-73
2023/11/09 07:34:02;;;;;;;5.57;3.50;;;;;;;;;;5015957;28;20048;-71
2023/11/09 07:36:27;;;;;;;7.07;4.27;;;;;;;;;;5011990;28;20030;-74
2023/11/09 07:38:53;;;;;;;5.90;3.97;;;;;;;;;;5016047;28;20347;-75
2023/11/09 07:41:26;;;;;;;9.83;4.63;;;;;;;;;;5013786;28;20029;-73
2023/11/09 07:43:52;;;;;;;7.57;3.37;;;;;;;;;;5021753;28;20179;-75
2023/11/09 07:46:20;;;;;;;8.70;3.67;;;;;;;;;;5018914;28;20085;-74
2023/11/09 07:48:46;;;;;;;9.80;5.40;;;;;;;;;;5008256;28;20778;-72
2023/11/09 07:51:13;;;;;;;7.50;4.60;;;;;;;;;;5006215;28;20029;-72
2023/11/09 07:53:39;;;;;;;8.37;4.83;;;;;;;;;;5002988;28;20507;-76
2023/11/09 07:56:06;;;;;;;7.77;4.60;;;;;;;;;;4998535;28;20030;-73
2023/11/09 07:58:34;;;;;;;12.97;4.73;;;;;;;;;;5003423;28;20172;-75
2023/11/09 08:01:01;;;;;;;11.27;5.07;;;;;;;;;;5017340;28;20041;-73
2023/11/09 08:03:29;;;;;;;6.67;3.67;;;;;;;;;;4994561;28;20046;-74
2023/11/09 08:05:56;;;;;;;6.97;3.73;;;;;;;;;;4998265;28;21065;-76
2023/11/09 08:08:22;;;;;;;6.53;3.70;;;;;;;;;;4994408;28;20065;-73
2023/11/09 08:10:48;;;;;;;14.13;4.00;;;;;;;;;;4998859;28;20033;-72
2023/11/09 08:13:14;;;;;;;4.37;2.83;;;;;;;;;;4998297;28;20038;-72
2023/11/09 08:15:39;;;;;;;9.30;3.63;;;;;;;;;;5007043;28;20057;-75
2023/11/09 08:18:05;;;;;;;5.23;3.43;;;;;;;;;;5004240;28;20041;-73
2023/11/09 08:20:31;;;;;;;7.53;3.50;;;;;;;;;;4997616;28;20037;-75
2023/11/09 08:23:02;;;;;;;10.87;3.93;;;;;;;;;;5000086;28;20040;-75
2023/11/09 08:25:28;;;;;;;9.45;3.60;;;;;;;;;;5028024;28;20056;-73
2023/11/09 08:27:54;;;;;;;11.37;3.97;;;;;;;;;;5001863;28;20063;-73
2023/11/09 08:30:26;;;;;;;5.87;3.67;;;;;;;;;;5008563;28;20022;-74
2023/11/09 08:32:52;;;;;;;6.27;2.97;;;;;;;;;;5010072;28;20037;-72
2023/11/09 08:35:18;;;;;;;7.17;3.20;;;;;;;;;;5030116;28;20025;-72
2023/11/09 08:37:44;;;;;;;6.00;3.20;;;;;;;;;;5015247;28;20093;-74
2023/11/09 08:40:17;;;;;;;5.50;3.40;;;;;;;;;;5002860;28;20026;-72
2023/11/09 08:42:49;;;;;;;15.00;3.77;;;;;;;;;;5010134;28;20477;-73
2023/11/09 08:45:21;;;;;;;;;;;;;;;;;;5004615;28;20554;-74
2023/11/09 08:47:51;;;;;;;8.00;3.45;;;;;;;;;;5021644;28;20021;-74
2023/11/09 08:50:17;;;;;;;11.03;4.60;;;;;;;;;;5000884;28;20036;-72
2023/11/09 08:52:44;;;;;;;7.07;4.03;;;;;;;;;;5000333;28;20033;-74
2023/11/09 08:55:16;;;;;;;5.60;3.40;;;;;;;;;;4996270;28;20026;-74
2023/11/09 08:57:54;;;;;;;11.10;3.43;;;;;;;;;;5003525;28;20648;-75
2023/11/09 09:00:23;;;;;;;6.75;4.00;;;;;;;;;;4994811;28;21089;-76
2023/11/09 09:02:49;;;;;;;8.97;3.90;;;;;;;;;;5001226;28;20034;-76
2023/11/09 09:05:19;;;;;;;7.63;3.57;;;;;;;;;;5001639;28;20608;-76
2023/11/09 09:07:46;;;;;;;7.33;4.00;;;;;;;;;;5000055;28;20108;-74
2023/11/09 09:10:16;;;;;;;10.10;3.93;;;;;;;;;;5008213;28;20033;-74
2023/11/09 09:12:45;;;;;;;14.80;3.73;;;;;;;;;;5003759;28;20044;-74
2023/11/09 09:15:13;;;;;;;9.50;3.50;;;;;;;;;;5008904;28;20047;-73
2023/11/09 09:17:49;;;;;;;9.33;3.40;;;;;;;;;;5006387;28;20030;-69
2023/11/09 09:20:20;;;;;;;5.97;3.33;;;;;;;;;;5030518;28;20037;-74
2023/11/09 09:22:56;;;;;;;6.37;3.23;;;;;;;;;;5003163;28;20034;-73
2023/11/09 09:25:25;;;;;;;8.97;3.20;;;;;;;;;;5026855;28;20081;-74
2023/11/09 09:27:52;;;;;;;7.03;3.23;;;;;;;;;;5001927;28;20042;-75
2023/11/09 09:30:21;;;;;;;4.93;2.87;;;;;;;;;;5003351;28;20034;-74
2023/11/09 09:32:55;;;;;;;4.10;2.73;;;;;;;;;;5012424;28;20059;-73
2023/11/09 09:35:24;;;;;;;8.23;2.93;;;;;;;;;;5023904;28;20033;-71
2023/11/09 09:37:50;;;;;;;7.30;3.40;;;;;;;;;;5005500;28;20505;-73
2023/11/09 09:40:17;;;;;;;10.67;2.93;;;;;;;;;;5018950;28;20083;-75
2023/11/09 09:42:46;;;;;;;6.97;3.03;;;;;;;;;;5008090;28;20034;-73
2023/11/09 09:45:22;;;;;;;8.17;2.90;;;;;;;;;;5006337;28;20034;-75
2023/11/09 09:47:50;;;;;;;6.38;2.78;;;;;;;;;;5023465;28;20037;-72
2023/11/09 09:50:17;;;;;;;7.43;3.92;;;;;;;;;;5024931;28;20034;-75
2023/11/09 09:52:48;;;;;;;6.65;3.38;;;;;;;;;;5009782;28;20044;-75
2023/11/09 09:55:18;;;;;;;5.60;2.42;;;;;;;;;;5010802;28;20034;-74
2023/11/09 09:57:45;;;;;;;4.70;3.03;;;;;;;;;;5019288;28;20542;-75
2023/11/09 10:00:23;;;;;;;6.93;3.20;;;;;;;;;;5008057;28;20034;-74
2023/11/09 10:02:50;;;;;;;9.23;2.88;;;;;;;;;;5011854;28;20029;-73
2023/11/09 10:05:17;;;;;;;14.80;3.47;;;;;;;;;;5010727;28;20057;-76
2023/11/09 10:08:13;;;;;;;5.45;2.65;;;;;;;;;;5014275;28;20040;-74
2023/11/09 10:10:55;;;;;;;5.28;3.65;;;;;;;;;;5002580;28;20115;-73
2023/11/09 10:13:24;;;;;;;5.03;3.00;;;;;;;;;;5013790;28;20029;-73
2023/11/09 10:15:59;;;;;;;7.00;3.47;;;;;;;;;;5010825;28;20045;-73
2023/11/09 10:18:29;;;;;;;7.78;2.58;;;;;;;;;;5023745;28;20029;-75
2023/11/09 10:20:57;;;;;;;8.07;2.90;;;;;;;;;;5005360;28;20079;-75
2023/11/09 10:23:24;;;;;;;8.82;3.08;;;;;;;;;;5015510;28;20064;-75
2023/11/09 10:25:51;;;;;;;6.47;3.25;;;;;;;;;;5024288;28;20038;-75
2023/11/09 10:28:16;;;;;;;8.82;3.03;;;;;;;;;;5016435;28;20041;-77
2023/11/09 10:30:45;;;;;;;7.32;2.60;;;;;;;;;;5012522;28;20030;-75
2023/11/09 10:33:14;;;;;;;5.40;3.42;;;;;;;;;;5015940;28;20053;-75
2023/11/09 10:35:42;;;;;;;6.88;3.00;;;;;;;;;;5017867;28;20044;-73
2023/11/09 10:38:09;;;;;;;6.93;2.88;;;;;;;;;;5012196;28;20037;-75
2023/11/09 10:40:44;;;;;;;4.43;2.95;;;;;;;;;;5009919;28;20124;-75
2023/11/09 10:43:14;;;;;;;5.68;3.17;;;;;;;;;;5017824;28;20413;-75
2023/11/09 10:45:49;;;;;;;9.27;4.20;;;;;;;;;;5003909;28;20044;-73
2023/11/09 10:48:18;;;;;;;5.30;2.67;;;;;;;;;;5003817;28;20091;-72
2023/11/09 10:50:47;;;;;;;6.05;3.80;;;;;;;;;;4999852;28;20037;-75
2023/11/09 10:53:18;;;;;;;9.20;3.25;;;;;;;;;;5001481;28;20036;-74
2023/11/09 10:55:49;;;;;;;8.60;3.25;;;;;;;;;;5006626;28;20036;-72
2023/11/09 10:58:20;;;;;;;8.73;3.70;;;;;;;;;;5003051;28;20088;-74
2023/11/09 11:00:58;;;;;;;6.07;2.92;;;;;;;;;;5009808;28;20033;-73
2023/11/09 11:03:43;;;;;;;14.90;5.25;;;;;;;;;;5024823;28;20042;-73
2023/11/09 11:06:18;;;;;;;5.72;2.42;;;;;;;;;;5003437;28;20026;-71
2023/11/09 11:08:51;;;;;;;5.88;3.15;;;;;;;;;;4998231;28;20034;-73
2023/11/09 11:11:28;;;;;;;6.38;2.88;;;;;;;;;;5013365;28;20145;-74
2023/11/09 11:14:02;;;;;;;12.80;3.40;;;;;;;;;;5012541;28;20022;-72
2023/11/09 11:17:07;;;;;;;7.90;3.70;;;;;;;;;;5031789;28;20106;-73
2023/11/09 11:20:09;;;;;;;7.13;2.60;;;;;;;;;;4997394;28;20521;-73
2023/11/09 11:22:40;;;;;;;10.48;2.72;;;;;;;;;;4990723;28;20473;-73
2023/11/09 11:25:35;;;;;;;6.20;3.17;;;;;;;;;;5001166;28;20037;-74
2023/11/09 11:28:06;;;;;;;6.85;3.05;;;;;;;;;;5014054;28;20046;-72
2023/11/09 11:30:38;;;;;;;19.40;5.57;;;;;;;;;;5008286;28;20030;-75
2023/11/09 11:33:12;;;;;;;5.82;2.80;;;;;;;;;;5005034;28;20150;-73
2023/11/09 11:35:48;;;;;;;7.72;2.80;;;;;;;;;;5011125;28;20021;-72
2023/11/09 11:38:17;;;;;;;3.35;2.25;;;;;;;;;;5011416;28;20116;-74
2023/11/09 11:40:43;;;;;;;5.75;2.90;;;;;;;;;;4996852;28;20121;-76
2023/11/09 11:43:11;;;;;;;5.50;3.33;;;;;;;;;;5005010;28;20068;-75
2023/11/09 11:45:38;;;;;;;4.78;2.72;;;;;;;;;;5004803;28;20057;-74
2023/11/09 11:48:07;;;;;;;5.55;2.30;;;;;;;;;;5000046;28;20069;-74
2023/11/09 11:50:36;;;;;;;8.20;2.88;;;;;;;;;;5003255;28;20528;-73
2023/11/09 11:53:12;;;;;;;3.20;2.28;;;;;;;;;;5029509;28;20040;-72
2023/11/09 11:55:52;;;;;;;7.88;2.30;;;;;;;;;;5032919;28;20025;-73
2023/11/09 11:58:18;;;;;;;5.30;2.47;;;;;;;;;;5019511;28;20043;-74
2023/11/09 12:00:46;;;;;;;6.57;3.03;;;;;;;;;;5009741;28;20052;-73
2023/11/09 12:03:16;;;;;;;3.78;2.40;;;;;;;;;;5003324;28;20041;-72
2023/11/09 12:05:43;;;;;;;6.40;2.75;;;;;;;;;;5011317;28;20150;-74
2023/11/09 12:08:13;;;;;;;5.55;2.97;;;;;;;;;;5014323;28;20049;-72
2023/11/09 12:10:42;;;;;;;5.63;2.67;;;;;;;;;;5007916;28;20034;-72
2023/11/09 12:13:08;;;;;;;5.35;2.38;;;;;;;;;;4994819;28;20055;-74
2023/11/09 12:15:38;;;;;;;3.60;2.05;;;;;;;;;;5010234;28;20076;-75
2023/11/09 12:18:04;;;;;;;4.30;2.28;;;;;;;;;;5009861;28;20803;-75
2023/11/09 12:20:33;;;;;;;4.55;2.38;;;;;;;;;;5003731;28;20104;-74
2023/11/09 12:23:05;;;;;;;4.32;2.20;;;;;;;;;;5003596;28;20027;-73
2023/11/09 12:25:51;;;;;;;3.38;2.30;;;;;;;;;;5000848;28;20038;-74
2023/11/09 12:28:17;;;;;;;5.50;2.33;;;;;;;;;;5015389;28;20649;-75
2023/11/09 12:30:46;;;;;;;3.80;2.30;;;;;;;;;;5019830;28;20029;-75
2023/11/09 12:33:12;;;;;;;7.63;3.35;;;;;;;;;;5020483;28;20048;-75
2023/11/09 12:36:03;;;;;;;7.45;2.55;;;;;;;;;;5020960;28;20040;-74
2023/11/09 12:38:33;;;;;;;5.03;2.35;;;;;;;;;;5023381;28;20084;-72
2023/11/09 12:41:01;;;;;;;3.70;1.95;;;;;;;;;;5011684;28;20030;-74
2023/11/09 12:43:38;;;;;;;8.90;3.70;;;;;;;;;;5015252;28;20084;-73
2023/11/09 12:46:11;;;;;;;3.80;1.95;;;;;;;;;;5010413;28;20041;-75
2023/11/09 12:48:45;;;;;;;4.97;1.73;;;;;;;;;;5003155;28;20590;-73
2023/11/09 12:51:28;;;;;;;6.57;2.03;;;;;;;;;;5007451;28;20034;-73
2023/11/09 12:53:55;;;;;;;4.53;1.60;;;;;;;;;;5003023;28;20037;-73
2023/11/09 12:56:22;;;;;;;5.00;2.08;;;;;;;;;;5001794;28;20025;-74
2023/11/09 12:59:12;;;;;;;5.45;2.15;;;;;;;;;;5002631;28;20041;-74
2023/11/09 13:01:38;;;;;;;3.63;2.17;;;;;;;;;;5000265;28;20029;-74
2023/11/09 13:04:05;;;;;;;2.55;2.00;;;;;;;;;;4997863;28;20070;-75
2023/11/09 13:06:31;;;;;;;6.55;3.08;;;;;;;;;;5013971;28;20018;-73
2023/11/09 13:09:41;;;;;;;4.63;1.75;;;;;;;;;;4991644;28;20496;-71
2023/11/09 13:11:47;;;;;;;4.85;2.58;;;;;;;;;;5003802;28;20053;-70
2023/11/09 13:14:19;;;;;;;9.23;2.90;;;;;;;;;;5003888;28;20045;-76
2023/11/09 13:16:45;;;;;;;4.93;2.47;;;;;;;;;;4999411;28;20030;-76
2023/11/09 13:19:12;;;;;;;6.00;2.90;;;;;;;;;;5016253;28;20044;-74
2023/11/09 13:21:39;;;;;;;9.02;3.78;;;;;;;;;;5005540;28;20057;-72
2023/11/09 13:24:05;;;;;;;11.38;3.17;;;;;;;;;;4995622;28;20717;-75
2023/11/09 13:26:34;;;;;;;8.23;3.13;;;;;;;;;;4999766;28;20033;-75
2023/11/09 13:29:11;;;;;;;7.57;2.45;;;;;;;;;;4995262;28;20033;-73
2023/11/09 13:31:39;;;;;;;3.78;2.10;;;;;;;;;;5012003;28;20053;-74
2023/11/09 13:34:08;;;;;;;5.25;2.10;;;;;;;;;;4997260;28;20804;-75
2023/11/09 13:36:54;;;;;;;5.85;3.22;;;;;;;;;;5001069;28;20064;-77
2023/11/09 13:40:07;;;;;;;4.47;2.17;;;;;;;;;;5001841;28;20044;-72
2023/11/09 13:42:37;;;;;;;4.45;1.98;;;;;;;;;;5001647;28;20057;-78
2023/11/09 13:45:34;;;;;;;3.67;2.08;;;;;;;;;;5002667;28;20034;-73
2023/11/09 13:48:09;;;;;;;4.90;2.08;;;;;;;;;;5004717;28;20037;-77
2023/11/09 13:50:36;;;;;;;3.00;1.60;;;;;;;;;;4999605;28;20105;-74
2023/11/09 13:53:17;;;;;;;4.00;2.38;;;;;;;;;;5004695;28;20100;-77
2023/11/09 13:55:59;;;;;;;4.85;2.95;;;;;;;;;;5009706;28;20415;-76
2023/11/09 13:58:25;;;;;;;6.95;1.95;;;;;;;;;;5006633;28;20029;-75
2023/11/09 14:00:59;;;;;;;2.88;2.10;;;;;;;;;;5003252;28;20494;-77
2023/11/09 14:03:31;;;;;;;5.13;2.42;;;;;;;;;;5002869;28;20752;-75
2023/11/09 14:05:58;;;;;;;;;;;;;;;;;;5002003;28;20072;-75
2023/11/09 14:08:24;;;;;;;3.38;2.10;;;;;;;;;;5007267;28;19995;-72
2023/11/09 14:10:50;;;;;;;4.60;2.17;;;;;;;;;;5006800;28;20144;-78
2023/11/09 14:13:24;;;;;;;5.25;2.13;;;;;;;;;;5004158;28;20121;-77
2023/11/09 14:15:50;;;;;;;2.65;1.70;;;;;;;;;;5001558;28;20070;-76
2023/11/09 14:21:17;;;;;;;3.05;2.10;;;;;;;;;;5009329;28;20029;-78
2023/11/09 14:23:43;;;;;;;4.53;1.90;;;;;;;;;;4999077;28;20034;-77
2023/11/09 14:26:09;;;;;;;3.40;1.70;;;;;;;;;;5002686;28;20034;-77
2023/11/09 14:28:35;;;;;;;6.43;1.75;;;;;;;;;;5004494;28;20026;-77
2023/11/09 14:31:06;;;;;;;2.75;1.50;;;;;;;;;;5012572;28;20034;-75
2023/11/09 14:33:33;;;;;;;2.53;1.70;;;;;;;;;;5004667;28;20041;-76
2023/11/09 14:35:59;;;;;;;3.92;1.73;;;;;;;;;;5005102;28;20022;-76
2023/11/09 14:38:27;;;;;;;2.33;1.50;;;;;;;;;;5004453;28;20034;-76
2023/11/09 14:40:57;;;;;;;5.68;1.77;;;;;;;;;;5000357;28;20059;-77
2023/11/09 14:43:23;;;;;;;6.05;2.25;;;;;;;;;;5003157;28;20027;-74
2023/11/09 14:45:49;;;;;;;4.07;1.52;;;;;;;;;;5008101;28;20547;-75
2023/11/09 14:48:17;;;;;;;3.63;1.52;;;;;;;;;;4998237;28;20036;-77
2023/11/09 14:50:47;;;;;;;5.95;2.10;;;;;;;;;;5003681;28;20030;-76
2023/11/09 14:53:19;;;;;;;8.30;2.97;;;;;;;;;;4993632;28;20034;-79
2023/11/09 14:55:53;;;;;;;4.20;2.67;;;;;;;;;;5002136;28;20272;-75
2023/11/09 14:58:27;;;;;;;9.73;3.58;;;;;;;;;;5004056;28;20034;-76
2023/11/09 15:00:53;;;;;;;3.92;2.88;;;;;;;;;;5006317;28;20029;-77